sensor_id;sensor_type;location;lat;lon;timestamp;P1;durP1;ratioP1;P2;durP2;ratioP2
27796;SDS011;15177;50.844;4.412;2022-07-29T00:00:39;5.15;;;2.10;;
27796;SDS011;15177;50.844;4.412;2022-07-29T00:03:05;13.57;;;2.15;;
27796;SDS011;15177;50.844;4.412;2022-07-29T00:05:31;5.50;;;2.20;;
27796;SDS011;15177;50.844;4.412;2022-07-29T00:07:56;6.07;;;2.13;;
27796;SDS011;15177;50.844;4.412;2022-07-29T00:10:22;5.95;;;1.83;;
27796;SDS011;15177;50.844;4.412;2022-07-29T00:12:49;9.25;;;1.70;;
27796;SDS011;15177;50.844;4.412;2022-07-29T00:15:14;9.18;;;2.05;;
27796;SDS011;15177;50.844;4.412;2022-07-29T00:17:40;5.10;;;1.95;;
27796;SDS011;15177;50.844;4.412;2022-07-29T00:20:07;6.68;;;2.30;;
27796;SDS011;15177;50.844;4.412;2022-07-29T00:22:36;6.55;;;1.90;;
27796;SDS011;15177;50.844;4.412;2022-07-29T00:25:03;7.63;;;2.25;;
27796;SDS011;15177;50.844;4.412;2022-07-29T00:27:29;7.88;;;2.20;;
27796;SDS011;15177;50.844;4.412;2022-07-29T00:29:56;6.97;;;1.80;;
27796;SDS011;15177;50.844;4.412;2022-07-29T00:32:23;6.28;;;2.33;;
27796;SDS011;15177;50.844;4.412;2022-07-29T00:34:49;4.43;;;2.08;;
27796;SDS011;15177;50.844;4.412;2022-07-29T00:37:25;5.90;;;1.90;;
27796;SDS011;15177;50.844;4.412;2022-07-29T00:39:51;8.27;;;2.35;;
27796;SDS011;15177;50.844;4.412;2022-07-29T00:42:17;6.35;;;1.90;;
27796;SDS011;15177;50.844;4.412;2022-07-29T00:44:43;5.57;;;1.92;;
27796;SDS011;15177;50.844;4.412;2022-07-29T00:47:10;13.15;;;2.55;;
27796;SDS011;15177;50.844;4.412;2022-07-29T00:49:36;5.75;;;2.03;;
27796;SDS011;15177;50.844;4.412;2022-07-29T00:52:05;5.65;;;1.77;;
27796;SDS011;15177;50.844;4.412;2022-07-29T00:54:32;6.22;;;1.67;;
27796;SDS011;15177;50.844;4.412;2022-07-29T00:56:59;7.47;;;2.03;;
27796;SDS011;15177;50.844;4.412;2022-07-29T00:59:27;6.63;;;1.73;;
27796;SDS011;15177;50.844;4.412;2022-07-29T01:01:54;5.78;;;2.13;;
27796;SDS011;15177;50.844;4.412;2022-07-29T01:04:20;6.65;;;2.13;;
27796;SDS011;15177;50.844;4.412;2022-07-29T01:06:47;3.40;;;1.60;;
27796;SDS011;15177;50.844;4.412;2022-07-29T01:09:15;6.25;;;1.92;;
27796;SDS011;15177;50.844;4.412;2022-07-29T01:11:43;6.38;;;2.30;;
27796;SDS011;15177;50.844;4.412;2022-07-29T01:14:11;7.30;;;1.80;;
27796;SDS011;15177;50.844;4.412;2022-07-29T01:16:39;5.57;;;2.08;;
27796;SDS011;15177;50.844;4.412;2022-07-29T01:19:27;5.43;;;2.00;;
27796;SDS011;15177;50.844;4.412;2022-07-29T01:21:59;6.70;;;2.03;;
27796;SDS011;15177;50.844;4.412;2022-07-29T01:29:55;9.50;;;2.40;;
27796;SDS011;15177;50.844;4.412;2022-07-29T01:32:27;12.25;;;3.17;;
27796;SDS011;15177;50.844;4.412;2022-07-29T01:42:51;5.28;;;2.00;;
27796;SDS011;15177;50.844;4.412;2022-07-29T01:48:03;4.28;;;1.90;;
27796;SDS011;15177;50.844;4.412;2022-07-29T01:56:09;7.72;;;2.20;;
27796;SDS011;15177;50.844;4.412;2022-07-29T01:58:36;3.17;;;1.92;;
27796;SDS011;15177;50.844;4.412;2022-07-29T02:01:05;5.88;;;2.45;;
27796;SDS011;15177;50.844;4.412;2022-07-29T02:03:33;7.35;;;2.38;;
27796;SDS011;15177;50.844;4.412;2022-07-29T02:06:02;5.63;;;1.75;;
27796;SDS011;15177;50.844;4.412;2022-07-29T02:08:31;5.93;;;2.20;;
27796;SDS011;15177;50.844;4.412;2022-07-29T02:10:59;3.55;;;1.80;;
27796;SDS011;15177;50.844;4.412;2022-07-29T02:13:27;7.15;;;1.80;;
27796;SDS011;15177;50.844;4.412;2022-07-29T02:15:55;4.45;;;1.95;;
27796;SDS011;15177;50.844;4.412;2022-07-29T02:18:23;3.40;;;2.05;;
27796;SDS011;15177;50.844;4.412;2022-07-29T02:20:50;5.38;;;1.85;;
27796;SDS011;15177;50.844;4.412;2022-07-29T02:23:21;7.55;;;2.22;;
27796;SDS011;15177;50.844;4.412;2022-07-29T02:25:49;5.85;;;2.47;;
27796;SDS011;15177;50.844;4.412;2022-07-29T02:28:17;6.78;;;2.17;;
27796;SDS011;15177;50.844;4.412;2022-07-29T02:30:45;7.45;;;2.40;;
27796;SDS011;15177;50.844;4.412;2022-07-29T02:33:14;2.38;;;1.83;;
27796;SDS011;15177;50.844;4.412;2022-07-29T02:35:43;5.60;;;2.35;;
27796;SDS011;15177;50.844;4.412;2022-07-29T02:38:12;3.38;;;2.10;;
27796;SDS011;15177;50.844;4.412;2022-07-29T02:40:52;8.32;;;2.00;;
27796;SDS011;15177;50.844;4.412;2022-07-29T02:43:20;3.10;;;2.08;;
27796;SDS011;15177;50.844;4.412;2022-07-29T02:45:49;6.60;;;2.38;;
27796;SDS011;15177;50.844;4.412;2022-07-29T02:48:17;6.47;;;2.08;;
27796;SDS011;15177;50.844;4.412;2022-07-29T02:50:50;3.40;;;2.20;;
27796;SDS011;15177;50.844;4.412;2022-07-29T02:53:22;7.90;;;2.10;;
27796;SDS011;15177;50.844;4.412;2022-07-29T02:55:57;4.57;;;1.95;;
27796;SDS011;15177;50.844;4.412;2022-07-29T02:58:31;8.50;;;2.22;;
27796;SDS011;15177;50.844;4.412;2022-07-29T03:01:03;4.70;;;1.88;;
27796;SDS011;15177;50.844;4.412;2022-07-29T03:03:40;7.30;;;2.50;;
27796;SDS011;15177;50.844;4.412;2022-07-29T03:06:13;4.13;;;2.22;;
27796;SDS011;15177;50.844;4.412;2022-07-29T03:08:40;6.20;;;1.90;;
27796;SDS011;15177;50.844;4.412;2022-07-29T03:11:08;4.50;;;1.80;;
27796;SDS011;15177;50.844;4.412;2022-07-29T03:13:35;6.70;;;1.77;;
27796;SDS011;15177;50.844;4.412;2022-07-29T03:16:01;6.18;;;2.60;;
27796;SDS011;15177;50.844;4.412;2022-07-29T03:18:28;9.15;;;2.50;;
27796;SDS011;15177;50.844;4.412;2022-07-29T03:20:55;6.35;;;2.08;;
27796;SDS011;15177;50.844;4.412;2022-07-29T03:23:22;7.13;;;2.15;;
27796;SDS011;15177;50.844;4.412;2022-07-29T03:25:49;5.40;;;2.35;;
27796;SDS011;15177;50.844;4.412;2022-07-29T03:28:15;10.15;;;2.88;;
27796;SDS011;15177;50.844;4.412;2022-07-29T03:30:41;6.97;;;2.13;;
27796;SDS011;15177;50.844;4.412;2022-07-29T03:33:06;9.40;;;2.70;;
27796;SDS011;15177;50.844;4.412;2022-07-29T03:35:32;4.40;;;2.00;;
27796;SDS011;15177;50.844;4.412;2022-07-29T03:37:59;8.20;;;2.70;;
27796;SDS011;15177;50.844;4.412;2022-07-29T03:43:18;4.07;;;1.90;;
27796;SDS011;15177;50.844;4.412;2022-07-29T03:45:48;4.20;;;2.17;;
27796;SDS011;15177;50.844;4.412;2022-07-29T03:48:18;4.32;;;2.30;;
27796;SDS011;15177;50.844;4.412;2022-07-29T03:50:46;7.28;;;2.20;;
27796;SDS011;15177;50.844;4.412;2022-07-29T03:53:12;14.77;;;2.90;;
27796;SDS011;15177;50.844;4.412;2022-07-29T03:55:45;6.10;;;2.83;;
27796;SDS011;15177;50.844;4.412;2022-07-29T03:58:15;6.47;;;2.22;;
27796;SDS011;15177;50.844;4.412;2022-07-29T04:00:43;6.63;;;2.35;;
27796;SDS011;15177;50.844;4.412;2022-07-29T04:03:12;5.40;;;2.03;;
27796;SDS011;15177;50.844;4.412;2022-07-29T04:05:38;5.00;;;2.30;;
27796;SDS011;15177;50.844;4.412;2022-07-29T04:08:04;6.20;;;2.20;;
27796;SDS011;15177;50.844;4.412;2022-07-29T04:10:31;7.95;;;2.10;;
27796;SDS011;15177;50.844;4.412;2022-07-29T04:12:57;10.02;;;2.70;;
27796;SDS011;15177;50.844;4.412;2022-07-29T04:15:23;5.40;;;2.30;;
27796;SDS011;15177;50.844;4.412;2022-07-29T04:17:49;7.57;;;2.55;;
27796;SDS011;15177;50.844;4.412;2022-07-29T04:20:15;6.28;;;3.10;;
27796;SDS011;15177;50.844;4.412;2022-07-29T04:22:41;7.13;;;3.13;;
27796;SDS011;15177;50.844;4.412;2022-07-29T04:25:06;5.85;;;2.80;;
27796;SDS011;15177;50.844;4.412;2022-07-29T04:27:33;4.38;;;2.30;;
27796;SDS011;15177;50.844;4.412;2022-07-29T04:29:58;7.32;;;2.63;;
27796;SDS011;15177;50.844;4.412;2022-07-29T04:32:25;13.73;;;3.15;;
27796;SDS011;15177;50.844;4.412;2022-07-29T04:34:51;5.55;;;3.03;;
27796;SDS011;15177;50.844;4.412;2022-07-29T04:37:17;6.90;;;2.90;;
27796;SDS011;15177;50.844;4.412;2022-07-29T04:39:44;4.97;;;2.83;;
27796;SDS011;15177;50.844;4.412;2022-07-29T04:42:10;4.72;;;2.70;;
27796;SDS011;15177;50.844;4.412;2022-07-29T04:44:36;8.10;;;2.78;;
27796;SDS011;15177;50.844;4.412;2022-07-29T04:47:01;6.32;;;2.70;;
27796;SDS011;15177;50.844;4.412;2022-07-29T04:49:27;9.40;;;2.83;;
27796;SDS011;15177;50.844;4.412;2022-07-29T04:51:54;7.22;;;3.10;;
27796;SDS011;15177;50.844;4.412;2022-07-29T04:54:20;7.45;;;3.90;;
27796;SDS011;15177;50.844;4.412;2022-07-29T04:56:46;4.72;;;3.05;;
27796;SDS011;15177;50.844;4.412;2022-07-29T04:59:12;4.88;;;3.47;;
27796;SDS011;15177;50.844;4.412;2022-07-29T05:01:38;9.65;;;3.65;;
27796;SDS011;15177;50.844;4.412;2022-07-29T05:04:03;7.43;;;3.30;;
27796;SDS011;15177;50.844;4.412;2022-07-29T05:06:30;7.85;;;3.20;;
27796;SDS011;15177;50.844;4.412;2022-07-29T05:08:56;7.97;;;3.55;;
27796;SDS011;15177;50.844;4.412;2022-07-29T05:11:26;7.93;;;3.38;;
27796;SDS011;15177;50.844;4.412;2022-07-29T05:13:52;9.85;;;3.55;;
27796;SDS011;15177;50.844;4.412;2022-07-29T05:16:17;5.70;;;3.20;;
27796;SDS011;15177;50.844;4.412;2022-07-29T05:18:43;9.25;;;3.20;;
27796;SDS011;15177;50.844;4.412;2022-07-29T05:21:09;6.47;;;3.25;;
27796;SDS011;15177;50.844;4.412;2022-07-29T05:23:36;7.88;;;3.50;;
27796;SDS011;15177;50.844;4.412;2022-07-29T05:26:02;7.53;;;2.90;;
27796;SDS011;15177;50.844;4.412;2022-07-29T05:28:29;7.35;;;3.25;;
27796;SDS011;15177;50.844;4.412;2022-07-29T05:31:04;8.43;;;2.95;;
27796;SDS011;15177;50.844;4.412;2022-07-29T05:33:29;8.73;;;3.55;;
27796;SDS011;15177;50.844;4.412;2022-07-29T05:35:55;5.72;;;2.85;;
27796;SDS011;15177;50.844;4.412;2022-07-29T05:38:20;9.98;;;3.15;;
27796;SDS011;15177;50.844;4.412;2022-07-29T05:40:46;5.35;;;3.03;;
27796;SDS011;15177;50.844;4.412;2022-07-29T05:43:12;10.13;;;3.03;;
27796;SDS011;15177;50.844;4.412;2022-07-29T05:45:38;9.68;;;3.17;;
27796;SDS011;15177;50.844;4.412;2022-07-29T05:48:04;7.55;;;3.40;;
27796;SDS011;15177;50.844;4.412;2022-07-29T05:50:31;5.32;;;3.88;;
27796;SDS011;15177;50.844;4.412;2022-07-29T05:52:57;10.75;;;3.28;;
27796;SDS011;15177;50.844;4.412;2022-07-29T05:55:22;6.97;;;3.80;;
27796;SDS011;15177;50.844;4.412;2022-07-29T05:57:48;7.40;;;3.50;;
27796;SDS011;15177;50.844;4.412;2022-07-29T06:00:14;4.57;;;3.15;;
27796;SDS011;15177;50.844;4.412;2022-07-29T06:02:41;9.77;;;3.38;;
27796;SDS011;15177;50.844;4.412;2022-07-29T06:05:08;6.15;;;4.28;;
27796;SDS011;15177;50.844;4.412;2022-07-29T06:07:34;8.82;;;3.33;;
27796;SDS011;15177;50.844;4.412;2022-07-29T06:09:59;10.20;;;3.17;;
27796;SDS011;15177;50.844;4.412;2022-07-29T06:12:25;6.07;;;2.78;;
27796;SDS011;15177;50.844;4.412;2022-07-29T06:14:51;7.43;;;3.10;;
27796;SDS011;15177;50.844;4.412;2022-07-29T06:17:16;5.57;;;2.67;;
27796;SDS011;15177;50.844;4.412;2022-07-29T06:19:42;4.82;;;2.88;;
27796;SDS011;15177;50.844;4.412;2022-07-29T06:22:08;8.93;;;3.10;;
27796;SDS011;15177;50.844;4.412;2022-07-29T06:24:34;4.50;;;3.10;;
27796;SDS011;15177;50.844;4.412;2022-07-29T06:27:02;7.53;;;3.38;;
27796;SDS011;15177;50.844;4.412;2022-07-29T06:29:28;5.97;;;2.97;;
27796;SDS011;15177;50.844;4.412;2022-07-29T06:31:54;5.00;;;3.20;;
27796;SDS011;15177;50.844;4.412;2022-07-29T06:34:20;6.90;;;3.22;;
27796;SDS011;15177;50.844;4.412;2022-07-29T06:36:46;4.78;;;3.13;;
27796;SDS011;15177;50.844;4.412;2022-07-29T06:39:11;6.32;;;2.90;;
27796;SDS011;15177;50.844;4.412;2022-07-29T06:41:37;5.82;;;2.75;;
27796;SDS011;15177;50.844;4.412;2022-07-29T06:44:03;8.90;;;3.33;;
27796;SDS011;15177;50.844;4.412;2022-07-29T06:46:29;7.95;;;2.97;;
27796;SDS011;15177;50.844;4.412;2022-07-29T06:48:55;9.13;;;3.00;;
27796;SDS011;15177;50.844;4.412;2022-07-29T06:51:22;8.27;;;3.28;;
27796;SDS011;15177;50.844;4.412;2022-07-29T06:53:48;7.38;;;3.38;;
27796;SDS011;15177;50.844;4.412;2022-07-29T06:56:13;7.38;;;2.88;;
27796;SDS011;15177;50.844;4.412;2022-07-29T06:58:39;7.70;;;3.33;;
27796;SDS011;15177;50.844;4.412;2022-07-29T07:01:05;5.78;;;2.78;;
27796;SDS011;15177;50.844;4.412;2022-07-29T07:03:31;7.40;;;3.08;;
27796;SDS011;15177;50.844;4.412;2022-07-29T07:05:58;5.50;;;2.90;;
27796;SDS011;15177;50.844;4.412;2022-07-29T07:08:23;9.73;;;3.55;;
27796;SDS011;15177;50.844;4.412;2022-07-29T07:10:50;5.22;;;3.20;;
27796;SDS011;15177;50.844;4.412;2022-07-29T07:13:16;8.25;;;3.33;;
27796;SDS011;15177;50.844;4.412;2022-07-29T07:15:42;4.53;;;2.85;;
27796;SDS011;15177;50.844;4.412;2022-07-29T07:18:09;7.70;;;3.25;;
27796;SDS011;15177;50.844;4.412;2022-07-29T07:20:35;4.75;;;2.90;;
27796;SDS011;15177;50.844;4.412;2022-07-29T07:23:01;6.93;;;3.90;;
27796;SDS011;15177;50.844;4.412;2022-07-29T07:25:29;6.30;;;3.63;;
27796;SDS011;15177;50.844;4.412;2022-07-29T07:27:55;7.93;;;3.42;;
27796;SDS011;15177;50.844;4.412;2022-07-29T07:30:20;11.05;;;3.72;;
27796;SDS011;15177;50.844;4.412;2022-07-29T07:32:46;7.07;;;3.33;;
27796;SDS011;15177;50.844;4.412;2022-07-29T07:35:13;14.32;;;3.92;;
27796;SDS011;15177;50.844;4.412;2022-07-29T07:37:39;5.57;;;3.38;;
27796;SDS011;15177;50.844;4.412;2022-07-29T07:40:06;5.28;;;3.08;;
27796;SDS011;15177;50.844;4.412;2022-07-29T07:42:32;6.40;;;3.10;;
27796;SDS011;15177;50.844;4.412;2022-07-29T07:44:59;4.68;;;3.33;;
27796;SDS011;15177;50.844;4.412;2022-07-29T07:47:25;5.72;;;3.17;;
27796;SDS011;15177;50.844;4.412;2022-07-29T07:49:51;6.10;;;3.25;;
27796;SDS011;15177;50.844;4.412;2022-07-29T07:52:18;10.27;;;3.97;;
27796;SDS011;15177;50.844;4.412;2022-07-29T07:54:45;7.22;;;3.40;;
27796;SDS011;15177;50.844;4.412;2022-07-29T07:57:12;7.35;;;3.63;;
27796;SDS011;15177;50.844;4.412;2022-07-29T07:59:38;6.95;;;3.15;;
27796;SDS011;15177;50.844;4.412;2022-07-29T08:02:04;12.00;;;3.55;;
27796;SDS011;15177;50.844;4.412;2022-07-29T08:04:30;11.02;;;4.28;;
27796;SDS011;15177;50.844;4.412;2022-07-29T08:06:56;9.23;;;3.20;;
27796;SDS011;15177;50.844;4.412;2022-07-29T08:09:23;7.40;;;3.10;;
27796;SDS011;15177;50.844;4.412;2022-07-29T08:11:51;9.80;;;4.22;;
27796;SDS011;15177;50.844;4.412;2022-07-29T08:14:17;5.85;;;3.30;;
27796;SDS011;15177;50.844;4.412;2022-07-29T08:16:43;5.28;;;3.67;;
27796;SDS011;15177;50.844;4.412;2022-07-29T08:19:09;8.82;;;4.15;;
27796;SDS011;15177;50.844;4.412;2022-07-29T08:21:34;5.57;;;3.72;;
27796;SDS011;15177;50.844;4.412;2022-07-29T08:24:02;9.68;;;3.75;;
27796;SDS011;15177;50.844;4.412;2022-07-29T08:26:39;7.90;;;3.33;;
27796;SDS011;15177;50.844;4.412;2022-07-29T08:29:06;5.20;;;2.90;;
27796;SDS011;15177;50.844;4.412;2022-07-29T08:31:31;8.82;;;3.33;;
27796;SDS011;15177;50.844;4.412;2022-07-29T08:33:57;7.13;;;2.95;;
27796;SDS011;15177;50.844;4.412;2022-07-29T08:36:25;5.57;;;2.55;;
27796;SDS011;15177;50.844;4.412;2022-07-29T08:38:51;6.72;;;2.30;;
27796;SDS011;15177;50.844;4.412;2022-07-29T08:41:17;3.00;;;1.95;;
27796;SDS011;15177;50.844;4.412;2022-07-29T08:43:44;5.28;;;3.38;;
27796;SDS011;15177;50.844;4.412;2022-07-29T08:46:10;5.43;;;2.67;;
27796;SDS011;15177;50.844;4.412;2022-07-29T08:48:36;3.03;;;2.42;;
27796;SDS011;15177;50.844;4.412;2022-07-29T08:51:04;3.63;;;2.65;;
27796;SDS011;15177;50.844;4.412;2022-07-29T08:53:33;8.18;;;2.80;;
27796;SDS011;15177;50.844;4.412;2022-07-29T08:55:59;3.30;;;2.60;;
27796;SDS011;15177;50.844;4.412;2022-07-29T08:58:27;4.72;;;2.58;;
27796;SDS011;15177;50.844;4.412;2022-07-29T09:00:57;4.07;;;2.15;;
27796;SDS011;15177;50.844;4.412;2022-07-29T09:03:31;7.07;;;2.67;;
27796;SDS011;15177;50.844;4.412;2022-07-29T09:05:59;7.45;;;2.53;;
27796;SDS011;15177;50.844;4.412;2022-07-29T09:08:26;4.85;;;2.63;;
27796;SDS011;15177;50.844;4.412;2022-07-29T09:10:53;4.90;;;2.00;;
27796;SDS011;15177;50.844;4.412;2022-07-29T09:13:20;4.60;;;2.00;;
27796;SDS011;15177;50.844;4.412;2022-07-29T09:15:47;10.85;;;2.13;;
27796;SDS011;15177;50.844;4.412;2022-07-29T09:18:32;4.68;;;2.47;;
27796;SDS011;15177;50.844;4.412;2022-07-29T09:21:03;6.80;;;2.40;;
27796;SDS011;15177;50.844;4.412;2022-07-29T09:23:41;4.13;;;1.92;;
27796;SDS011;15177;50.844;4.412;2022-07-29T09:26:27;6.97;;;2.03;;
27796;SDS011;15177;50.844;4.412;2022-07-29T09:28:54;6.63;;;1.85;;
27796;SDS011;15177;50.844;4.412;2022-07-29T09:31:22;6.97;;;2.15;;
27796;SDS011;15177;50.844;4.412;2022-07-29T09:33:59;6.00;;;2.17;;
27796;SDS011;15177;50.844;4.412;2022-07-29T09:36:26;5.43;;;2.25;;
27796;SDS011;15177;50.844;4.412;2022-07-29T09:38:58;2.28;;;1.63;;
27796;SDS011;15177;50.844;4.412;2022-07-29T09:41:25;5.63;;;1.60;;
27796;SDS011;15177;50.844;4.412;2022-07-29T09:43:58;5.38;;;1.55;;
27796;SDS011;15177;50.844;4.412;2022-07-29T09:46:25;8.23;;;1.88;;
27796;SDS011;15177;50.844;4.412;2022-07-29T09:51:33;4.88;;;1.50;;
27796;SDS011;15177;50.844;4.412;2022-07-29T09:53:59;5.07;;;1.52;;
27796;SDS011;15177;50.844;4.412;2022-07-29T09:59:06;6.13;;;1.92;;
27796;SDS011;15177;50.844;4.412;2022-07-29T10:01:32;9.60;;;2.42;;
27796;SDS011;15177;50.844;4.412;2022-07-29T10:03:58;4.65;;;1.98;;
27796;SDS011;15177;50.844;4.412;2022-07-29T10:06:23;3.47;;;2.00;;
27796;SDS011;15177;50.844;4.412;2022-07-29T10:08:49;4.88;;;2.30;;
27796;SDS011;15177;50.844;4.412;2022-07-29T10:11:16;10.80;;;2.05;;
27796;SDS011;15177;50.844;4.412;2022-07-29T10:13:43;14.75;;;2.33;;
27796;SDS011;15177;50.844;4.412;2022-07-29T10:16:10;4.90;;;1.83;;
27796;SDS011;15177;50.844;4.412;2022-07-29T10:18:37;4.20;;;1.85;;
27796;SDS011;15177;50.844;4.412;2022-07-29T10:21:05;9.68;;;2.25;;
27796;SDS011;15177;50.844;4.412;2022-07-29T10:23:32;3.42;;;1.67;;
27796;SDS011;15177;50.844;4.412;2022-07-29T10:26:03;8.05;;;1.98;;
27796;SDS011;15177;50.844;4.412;2022-07-29T10:28:31;10.90;;;2.63;;
27796;SDS011;15177;50.844;4.412;2022-07-29T10:31:03;3.80;;;1.70;;
27796;SDS011;15177;50.844;4.412;2022-07-29T10:41:43;5.35;;;1.90;;
27796;SDS011;15177;50.844;4.412;2022-07-29T10:44:24;7.03;;;2.17;;
27796;SDS011;15177;50.844;4.412;2022-07-29T10:46:52;5.68;;;1.90;;
27796;SDS011;15177;50.844;4.412;2022-07-29T10:49:19;4.22;;;1.83;;
27796;SDS011;15177;50.844;4.412;2022-07-29T10:59:49;5.40;;;1.67;;
27796;SDS011;15177;50.844;4.412;2022-07-29T11:07:28;5.55;;;1.73;;
27796;SDS011;15177;50.844;4.412;2022-07-29T11:15:26;7.45;;;2.53;;
27796;SDS011;15177;50.844;4.412;2022-07-29T11:47:26;9.98;;;2.90;;
27796;SDS011;15177;50.844;4.412;2022-07-29T11:49:54;6.10;;;2.72;;
27796;SDS011;15177;50.844;4.412;2022-07-29T11:52:21;7.38;;;2.88;;
27796;SDS011;15177;50.844;4.412;2022-07-29T11:54:47;7.25;;;2.58;;
27796;SDS011;15177;50.844;4.412;2022-07-29T11:57:17;5.25;;;3.08;;
27796;SDS011;15177;50.844;4.412;2022-07-29T11:59:45;7.85;;;2.95;;
27796;SDS011;15177;50.844;4.412;2022-07-29T12:02:12;7.50;;;3.20;;
27796;SDS011;15177;50.844;4.412;2022-07-29T12:07:31;10.43;;;3.90;;
27796;SDS011;15177;50.844;4.412;2022-07-29T12:09:58;9.02;;;3.63;;
27796;SDS011;15177;50.844;4.412;2022-07-29T12:12:25;10.20;;;3.92;;
27796;SDS011;15177;50.844;4.412;2022-07-29T12:14:51;6.30;;;3.10;;
27796;SDS011;15177;50.844;4.412;2022-07-29T12:17:26;6.95;;;4.43;;
27796;SDS011;15177;50.844;4.412;2022-07-29T12:19:58;9.07;;;3.90;;
27796;SDS011;15177;50.844;4.412;2022-07-29T12:22:35;7.78;;;3.70;;
27796;SDS011;15177;50.844;4.412;2022-07-29T12:25:03;9.63;;;4.05;;
27796;SDS011;15177;50.844;4.412;2022-07-29T12:27:30;5.82;;;3.13;;
27796;SDS011;15177;50.844;4.412;2022-07-29T12:32:37;7.40;;;2.70;;
27796;SDS011;15177;50.844;4.412;2022-07-29T12:35:04;5.85;;;2.75;;
27796;SDS011;15177;50.844;4.412;2022-07-29T12:37:33;6.55;;;3.60;;
27796;SDS011;15177;50.844;4.412;2022-07-29T12:40:00;5.00;;;3.13;;
27796;SDS011;15177;50.844;4.412;2022-07-29T12:42:27;7.68;;;3.10;;
27796;SDS011;15177;50.844;4.412;2022-07-29T12:44:53;9.55;;;3.58;;
27796;SDS011;15177;50.844;4.412;2022-07-29T12:47:19;9.07;;;3.17;;
27796;SDS011;15177;50.844;4.412;2022-07-29T12:49:45;8.73;;;3.42;;
27796;SDS011;15177;50.844;4.412;2022-07-29T12:54:53;18.60;;;3.53;;
27796;SDS011;15177;50.844;4.412;2022-07-29T12:57:19;6.57;;;3.00;;
27796;SDS011;15177;50.844;4.412;2022-07-29T12:59:44;8.60;;;3.05;;
27796;SDS011;15177;50.844;4.412;2022-07-29T13:02:22;7.07;;;3.13;;
27796;SDS011;15177;50.844;4.412;2022-07-29T13:05:00;8.80;;;2.95;;
27796;SDS011;15177;50.844;4.412;2022-07-29T13:07:27;8.90;;;3.53;;
27796;SDS011;15177;50.844;4.412;2022-07-29T13:09:54;8.02;;;3.42;;
27796;SDS011;15177;50.844;4.412;2022-07-29T13:15:31;7.13;;;2.78;;
27796;SDS011;15177;50.844;4.412;2022-07-29T13:17:58;9.93;;;3.13;;
27796;SDS011;15177;50.844;4.412;2022-07-29T13:20:25;12.88;;;3.72;;
27796;SDS011;15177;50.844;4.412;2022-07-29T13:22:54;5.50;;;2.88;;
27796;SDS011;15177;50.844;4.412;2022-07-29T13:25:26;8.00;;;2.95;;
27796;SDS011;15177;50.844;4.412;2022-07-29T13:27:55;5.00;;;2.30;;
27796;SDS011;15177;50.844;4.412;2022-07-29T13:30:21;3.45;;;2.00;;
27796;SDS011;15177;50.844;4.412;2022-07-29T13:32:47;6.97;;;2.20;;
27796;SDS011;15177;50.844;4.412;2022-07-29T13:35:13;6.38;;;2.63;;
27796;SDS011;15177;50.844;4.412;2022-07-29T13:37:39;2.38;;;2.00;;
27796;SDS011;15177;50.844;4.412;2022-07-29T13:40:06;8.90;;;2.38;;
27796;SDS011;15177;50.844;4.412;2022-07-29T13:42:33;5.30;;;2.53;;
27796;SDS011;15177;50.844;4.412;2022-07-29T13:44:59;7.30;;;2.67;;
27796;SDS011;15177;50.844;4.412;2022-07-29T13:47:26;3.38;;;1.88;;
27796;SDS011;15177;50.844;4.412;2022-07-29T13:49:52;9.45;;;2.30;;
27796;SDS011;15177;50.844;4.412;2022-07-29T13:52:18;11.00;;;2.50;;
27796;SDS011;15177;50.844;4.412;2022-07-29T13:54:45;10.73;;;2.30;;
27796;SDS011;15177;50.844;4.412;2022-07-29T13:57:10;8.13;;;2.40;;
27796;SDS011;15177;50.844;4.412;2022-07-29T13:59:37;10.40;;;2.05;;
27796;SDS011;15177;50.844;4.412;2022-07-29T14:02:04;5.10;;;2.03;;
27796;SDS011;15177;50.844;4.412;2022-07-29T14:04:30;9.15;;;2.60;;
27796;SDS011;15177;50.844;4.412;2022-07-29T14:06:56;4.18;;;1.88;;
27796;SDS011;15177;50.844;4.412;2022-07-29T14:09:22;7.40;;;2.30;;
27796;SDS011;15177;50.844;4.412;2022-07-29T14:11:47;7.32;;;2.63;;
27796;SDS011;15177;50.844;4.412;2022-07-29T14:14:15;3.78;;;2.00;;
27796;SDS011;15177;50.844;4.412;2022-07-29T14:16:41;4.85;;;2.08;;
27796;SDS011;15177;50.844;4.412;2022-07-29T14:19:07;7.63;;;2.28;;
27796;SDS011;15177;50.844;4.412;2022-07-29T14:21:33;4.40;;;1.90;;
27796;SDS011;15177;50.844;4.412;2022-07-29T14:23:59;7.88;;;2.08;;
27796;SDS011;15177;50.844;4.412;2022-07-29T14:26:25;5.40;;;1.88;;
27796;SDS011;15177;50.844;4.412;2022-07-29T14:28:51;3.15;;;1.92;;
27796;SDS011;15177;50.844;4.412;2022-07-29T14:31:17;7.28;;;2.17;;
27796;SDS011;15177;50.844;4.412;2022-07-29T14:33:42;6.82;;;1.80;;
27796;SDS011;15177;50.844;4.412;2022-07-29T14:36:08;6.13;;;2.13;;
27796;SDS011;15177;50.844;4.412;2022-07-29T14:38:34;5.63;;;2.13;;
27796;SDS011;15177;50.844;4.412;2022-07-29T14:41:02;6.78;;;1.80;;
27796;SDS011;15177;50.844;4.412;2022-07-29T14:43:28;7.65;;;2.60;;
27796;SDS011;15177;50.844;4.412;2022-07-29T14:45:54;6.13;;;1.90;;
27796;SDS011;15177;50.844;4.412;2022-07-29T14:48:19;7.13;;;2.03;;
27796;SDS011;15177;50.844;4.412;2022-07-29T14:50:45;6.38;;;1.60;;
27796;SDS011;15177;50.844;4.412;2022-07-29T14:53:11;3.55;;;1.90;;
27796;SDS011;15177;50.844;4.412;2022-07-29T14:55:39;3.38;;;1.45;;
27796;SDS011;15177;50.844;4.412;2022-07-29T14:58:06;2.63;;;1.77;;
27796;SDS011;15177;50.844;4.412;2022-07-29T15:00:32;5.22;;;2.13;;
27796;SDS011;15177;50.844;4.412;2022-07-29T15:02:59;5.32;;;2.00;;
27796;SDS011;15177;50.844;4.412;2022-07-29T15:05:26;5.57;;;2.08;;
27796;SDS011;15177;50.844;4.412;2022-07-29T15:07:52;4.85;;;1.90;;
27796;SDS011;15177;50.844;4.412;2022-07-29T15:10:18;6.13;;;2.30;;
27796;SDS011;15177;50.844;4.412;2022-07-29T15:12:44;5.65;;;2.05;;
27796;SDS011;15177;50.844;4.412;2022-07-29T15:15:10;2.25;;;2.00;;
27796;SDS011;15177;50.844;4.412;2022-07-29T15:17:36;12.88;;;2.67;;
27796;SDS011;15177;50.844;4.412;2022-07-29T15:20:01;4.88;;;2.00;;
27796;SDS011;15177;50.844;4.412;2022-07-29T15:22:27;6.10;;;2.45;;
27796;SDS011;15177;50.844;4.412;2022-07-29T15:24:53;7.30;;;1.90;;
27796;SDS011;15177;50.844;4.412;2022-07-29T15:27:20;4.53;;;2.05;;
27796;SDS011;15177;50.844;4.412;2022-07-29T15:29:48;5.40;;;2.22;;
27796;SDS011;15177;50.844;4.412;2022-07-29T15:32:14;6.82;;;2.65;;
27796;SDS011;15177;50.844;4.412;2022-07-29T15:34:41;6.63;;;2.67;;
27796;SDS011;15177;50.844;4.412;2022-07-29T15:37:06;3.42;;;2.28;;
27796;SDS011;15177;50.844;4.412;2022-07-29T15:39:32;7.03;;;2.35;;
27796;SDS011;15177;50.844;4.412;2022-07-29T15:41:59;2.90;;;2.05;;
27796;SDS011;15177;50.844;4.412;2022-07-29T15:44:25;5.65;;;2.63;;
27796;SDS011;15177;50.844;4.412;2022-07-29T15:46:51;5.82;;;3.05;;
27796;SDS011;15177;50.844;4.412;2022-07-29T15:49:28;10.38;;;2.83;;
27796;SDS011;15177;50.844;4.412;2022-07-29T15:52:01;4.43;;;2.00;;
27796;SDS011;15177;50.844;4.412;2022-07-29T15:54:30;4.70;;;2.45;;
27796;SDS011;15177;50.844;4.412;2022-07-29T15:56:57;8.23;;;2.30;;
27796;SDS011;15177;50.844;4.412;2022-07-29T15:59:23;4.55;;;2.20;;
27796;SDS011;15177;50.844;4.412;2022-07-29T16:01:49;7.07;;;2.78;;
27796;SDS011;15177;50.844;4.412;2022-07-29T16:04:14;7.78;;;2.97;;
27796;SDS011;15177;50.844;4.412;2022-07-29T16:06:41;6.07;;;2.50;;
27796;SDS011;15177;50.844;4.412;2022-07-29T16:09:07;5.78;;;2.70;;
27796;SDS011;15177;50.844;4.412;2022-07-29T16:11:33;9.20;;;2.63;;
27796;SDS011;15177;50.844;4.412;2022-07-29T16:13:58;4.70;;;2.28;;
27796;SDS011;15177;50.844;4.412;2022-07-29T16:16:24;5.78;;;2.95;;
27796;SDS011;15177;50.844;4.412;2022-07-29T16:18:50;6.78;;;3.13;;
27796;SDS011;15177;50.844;4.412;2022-07-29T16:21:15;5.85;;;2.65;;
27796;SDS011;15177;50.844;4.412;2022-07-29T16:23:41;8.75;;;3.17;;